This is the latest recevied weather packets stored in our database for station/object G4MHJ-1. If no packets are shown the sender has not sent any weather packets the latest 1 day(s).
| Time | Temp. | Humidity | Pressure | Rain* | Wind** | Luminosity | Snow |
|---|---|---|---|---|---|---|---|
| 1778041303 | 8.33° C | 84% | 1012.2 hPa | 0 mm | 2.24 m/s, 80° | 0 W/m² | - |
| 1778037704 | 8.89° C | 82% | 1012.1 hPa | 0 mm | 2.24 m/s, 24° | 0 W/m² | - |
| 1778034098 | 9.44° C | 86% | 1012.4 hPa | 0 mm | 1.34 m/s, 33° | 0 W/m² | - |
| 1778030497 | 9.44° C | 84% | 1012.6 hPa | 0 mm | 1.34 m/s, 39° | 0 W/m² | - |
| 1778026896 | 10° C | 83% | 1012.8 hPa | 0 mm | 1.34 m/s, 44° | 0 W/m² | - |
| 1778023295 | 10.56° C | 82% | 1012.8 hPa | 0 mm | 1.79 m/s, 50° | 0 W/m² | - |
| 1778019694 | 11.11° C | 84% | 1012.8 hPa | 0 mm | 2.24 m/s, 32° | 0 W/m² | - |
| 1778016093 | 11.67° C | 77% | 1012.7 hPa | 0 mm | 0.45 m/s, 43° | 0 W/m² | - |
| 1778012491 | 12.22° C | 74% | 1012.4 hPa | 0 mm | 0.45 m/s, 46° | 0 W/m² | - |
| 1778008889 | 12.78° C | 74% | 1011.6 hPa | 0 mm | 0 m/s | 0 W/m² | - |
| 1778005289 | 13.89° C | 69% | 1011.2 hPa | 0 mm | 0 m/s | 7 W/m² | - |
| 1778001688 | 13.89° C | 65% | 1011.3 hPa | 0 mm | 0 m/s | 74 W/m² | - |
| 1777998090 | 15° C | 60% | 1011.4 hPa | 0 mm | 0.45 m/s, 182° | 116 W/m² | - |
| 1777994488 | 16.67° C | 54% | 1011.4 hPa | 0 mm | 0.89 m/s, 53° | 366 W/m² | - |
| 1777990884 | 16.67° C | 54% | 1011.6 hPa | 0 mm | 0.45 m/s, 200° | 146 W/m² | - |
| 1777987281 | 16.67° C | 57% | 1011.8 hPa | 0 mm | 0.89 m/s, 186° | 939 W/m² | - |
| 1777983681 | 16.11° C | 57% | 1011.9 hPa | 0 mm | 1.79 m/s, 49° | 304 W/m² | - |
| 1777980079 | 15.56° C | 61% | 1012.1 hPa | 0 mm | 1.79 m/s, 61° | 276 W/m² | - |
| 1777976479 | 14.44° C | 70% | 1012.5 hPa | 0 mm | 1.34 m/s, 5° | 209 W/m² | - |
| 1777972877 | 12.78° C | 77% | 1012.8 hPa | 0 mm | 1.79 m/s, 349° | 130 W/m² | - |
| 1777969267 | 12.22° C | 79% | 1013 hPa | 0 mm | 1.79 m/s, 56° | 81 W/m² | - |
| 1777965667 | 11.11° C | 86% | 1012.9 hPa | 0 mm | 1.79 m/s, 51° | 100 W/m² | - |
| 1777962067 | 10.56° C | 91% | 1013.2 hPa | 0 mm | 1.34 m/s, 44° | 76 W/m² | - |
| 1777958469 | 10° C | 93% | 1013.3 hPa | 0 mm | 0.89 m/s, 49° | 21 W/m² | - |
* Rain latest hour (hover to see other rain measurements)
** Current wind speed in m/s (hover to see current wind gust speed)